createdAt,value
2023-04-15T00:01:06.580Z,79.57
2023-04-15T00:03:34.647Z,79.20
2023-04-15T00:06:02.652Z,78.99
2023-04-15T00:08:30.144Z,79.36
2023-04-15T00:10:56.924Z,79.06
2023-04-15T00:13:23.745Z,78.95
2023-04-15T00:15:50.388Z,79.50
2023-04-15T00:18:17.073Z,80.39
2023-04-15T00:20:43.723Z,80.34
2023-04-15T00:23:10.408Z,79.73
2023-04-15T00:25:37.043Z,79.66
2023-04-15T00:28:04.095Z,79.04
2023-04-15T00:30:31.487Z,79.10
2023-04-15T00:32:58.546Z,79.38
2023-04-15T00:35:25.657Z,79.10
2023-04-15T00:37:52.700Z,80.08
2023-04-15T00:40:21.024Z,79.76
2023-04-15T00:42:48.121Z,78.88
2023-04-15T00:45:15.701Z,78.60
2023-04-15T00:47:43.673Z,78.61
2023-04-15T00:50:12.613Z,78.76
2023-04-15T00:52:40.633Z,77.89
2023-04-15T00:55:08.783Z,78.86
2023-04-15T00:57:36.520Z,79.04
2023-04-15T01:00:05.737Z,77.88
2023-04-15T01:02:33.456Z,77.83
2023-04-15T01:05:02.314Z,77.61
2023-04-15T01:07:28.994Z,78.21
2023-04-15T01:09:55.730Z,77.88
2023-04-15T01:12:23.270Z,79.07
2023-04-15T01:14:50.035Z,78.75
2023-04-15T01:17:17.759Z,78.45
2023-04-15T01:19:44.422Z,78.28
2023-04-15T01:22:11.383Z,78.14
2023-04-15T01:24:38.572Z,78.59
2023-04-15T01:27:05.597Z,78.50
2023-04-15T01:29:35.349Z,78.66
2023-04-15T01:32:02.124Z,78.63
2023-04-15T01:34:28.836Z,78.37
2023-04-15T01:36:55.634Z,76.93
2023-04-15T01:39:22.676Z,76.80
2023-04-15T01:41:49.316Z,77.07
2023-04-15T01:44:16.476Z,77.24
2023-04-15T01:46:43.202Z,76.90
2023-04-15T01:49:09.982Z,77.10
2023-04-15T01:51:36.669Z,76.75
2023-04-15T01:54:04.112Z,77.45
2023-04-15T01:56:30.855Z,78.02
2023-04-15T01:58:57.662Z,78.70
2023-04-15T02:01:25.005Z,79.17
2023-04-15T02:03:52.249Z,77.36
2023-04-15T02:06:19.362Z,78.14
2023-04-15T02:08:46.161Z,78.90
2023-04-15T02:11:12.922Z,77.86
2023-04-15T02:13:39.619Z,78.54
2023-04-15T02:16:18.776Z,78.13
2023-04-15T02:18:47.066Z,77.35
2023-04-15T02:21:14.138Z,78.48
2023-04-15T02:23:41.119Z,78.42
2023-04-15T02:26:08.203Z,77.75
2023-04-15T02:28:35.158Z,79.56
2023-04-15T02:31:06.599Z,80.85
2023-04-15T02:33:33.498Z,80.30
2023-04-15T02:36:01.075Z,80.25
2023-04-15T02:38:28.511Z,80.32
2023-04-15T02:40:55.517Z,80.14
2023-04-15T02:43:22.348Z,80.35
2023-04-15T02:45:51.374Z,80.38
2023-04-15T02:48:20.286Z,80.73
2023-04-15T02:50:47.976Z,81.38
2023-04-15T02:53:16.174Z,81.00
2023-04-15T02:55:43.022Z,81.38
2023-04-15T02:58:09.895Z,81.69
2023-04-15T03:00:36.786Z,81.29
2023-04-15T03:03:06.149Z,81.64
2023-04-15T03:05:33.268Z,81.99
2023-04-15T03:08:01.412Z,80.61
2023-04-15T03:10:28.578Z,82.19
2023-04-15T03:12:55.671Z,80.90
2023-04-15T03:15:23.876Z,80.80
2023-04-15T03:17:52.926Z,80.57
2023-04-15T03:20:19.895Z,80.16
2023-04-15T03:22:47.999Z,81.81
2023-04-15T03:25:14.838Z,82.39
2023-04-15T03:27:42.035Z,82.79
2023-04-15T03:30:09.538Z,82.44
2023-04-15T03:32:38.318Z,83.38
2023-04-15T03:35:06.787Z,83.94
2023-04-15T03:37:33.469Z,83.77
2023-04-15T03:40:00.183Z,83.50
2023-04-15T03:42:27.087Z,84.14
2023-04-15T03:44:53.933Z,84.90
2023-04-15T03:47:21.012Z,84.55
2023-04-15T03:49:47.670Z,84.39
2023-04-15T03:52:14.393Z,85.69
2023-04-15T03:54:41.097Z,86.80
2023-04-15T03:57:07.717Z,88.07
2023-04-15T03:59:34.381Z,87.32
2023-04-15T04:02:01.332Z,86.58
2023-04-15T04:04:28.212Z,87.40
2023-04-15T04:06:54.960Z,88.05
2023-04-15T04:09:21.749Z,88.30
2023-04-15T04:11:48.402Z,87.60
2023-04-15T04:14:15.185Z,87.44
2023-04-15T04:16:42.129Z,87.82
2023-04-15T04:19:08.842Z,88.68
2023-04-15T04:21:36.542Z,89.88
2023-04-15T04:24:03.353Z,89.81
2023-04-15T04:26:30.120Z,89.86
2023-04-15T04:28:56.745Z,90.26
2023-04-15T04:31:23.461Z,91.03
2023-04-15T04:33:50.147Z,91.60
2023-04-15T04:36:17.043Z,92.58
2023-04-15T04:38:43.708Z,92.26
2023-04-15T04:41:10.640Z,90.96
2023-04-15T04:43:37.332Z,91.81
2023-04-15T04:46:04.097Z,92.38
2023-04-15T04:48:30.856Z,92.81
2023-04-15T04:50:57.691Z,93.36
2023-04-15T04:53:24.313Z,92.53
2023-04-15T04:55:51.242Z,92.28
2023-04-15T04:58:17.898Z,92.45
2023-04-15T05:00:44.845Z,91.82
2023-04-15T05:03:11.699Z,92.03
2023-04-15T05:05:41.082Z,92.38
2023-04-15T05:08:08.005Z,91.83
2023-04-15T05:10:34.731Z,91.93
2023-04-15T05:13:01.423Z,91.93
2023-04-15T05:15:28.182Z,91.68
2023-04-15T05:17:55.229Z,90.93
2023-04-15T05:20:21.975Z,90.12
2023-04-15T05:22:48.734Z,89.30
2023-04-15T05:25:15.467Z,90.52
2023-04-15T05:27:42.274Z,89.58
2023-04-15T05:30:10.625Z,88.61
2023-04-15T05:32:38.324Z,87.47
2023-04-15T05:35:05.706Z,87.04
2023-04-15T05:37:32.330Z,87.06
2023-04-15T05:39:59.040Z,86.89
2023-04-15T05:42:25.996Z,86.67
2023-04-15T05:44:52.775Z,85.85
2023-04-15T05:47:19.461Z,85.07
2023-04-15T05:49:46.466Z,84.68
2023-04-15T05:52:13.147Z,83.94
2023-04-15T05:54:39.811Z,82.57
2023-04-15T05:57:06.542Z,81.74
2023-04-15T05:59:33.245Z,81.43
2023-04-15T06:02:00.066Z,81.40
2023-04-15T06:04:26.967Z,80.51
2023-04-15T06:06:53.629Z,79.44
2023-04-15T06:09:20.327Z,77.68
2023-04-15T06:11:47.417Z,77.64
2023-04-15T06:14:14.095Z,76.38
2023-04-15T06:16:40.856Z,75.06
2023-04-15T06:19:07.676Z,75.58
2023-04-15T06:21:34.418Z,76.10
2023-04-15T06:24:04.002Z,75.37
2023-04-15T06:26:31.252Z,75.20
2023-04-15T06:28:57.868Z,75.52
2023-04-15T06:31:24.595Z,73.47
2023-04-15T06:33:51.380Z,73.00
2023-04-15T06:36:18.168Z,72.86
2023-04-15T06:38:44.866Z,73.57
2023-04-15T06:41:11.662Z,73.01
2023-04-15T06:43:39.137Z,72.55
2023-04-15T06:46:05.913Z,72.25
2023-04-15T06:48:32.568Z,71.80
2023-04-15T06:50:59.348Z,72.70
2023-04-15T06:53:28.083Z,72.58
2023-04-15T06:55:55.077Z,71.32
2023-04-15T06:58:22.069Z,71.76
2023-04-15T07:00:49.245Z,72.80
2023-04-15T07:03:16.346Z,72.15
2023-04-15T07:05:43.568Z,72.14
2023-04-15T07:08:10.431Z,72.66
2023-04-15T07:10:37.177Z,72.04
2023-04-15T07:13:04.519Z,71.50
2023-04-15T07:15:31.311Z,71.26
2023-04-15T07:17:58.213Z,70.43
2023-04-15T07:20:25.015Z,70.92
2023-04-15T07:22:51.827Z,70.80
2023-04-15T07:25:19.066Z,71.71
2023-04-15T07:27:45.930Z,71.30
2023-04-15T07:30:13.261Z,73.20
2023-04-15T07:32:40.549Z,72.01
2023-04-15T07:35:07.887Z,69.94
2023-04-15T07:37:34.628Z,70.41
2023-04-15T07:40:01.951Z,68.30
2023-04-15T07:42:29.379Z,68.38
2023-04-15T07:44:56.929Z,66.64
2023-04-15T07:47:23.675Z,68.30
2023-04-15T07:49:51.551Z,68.13
2023-04-15T07:55:15.356Z,66.76
2023-04-15T07:57:42.096Z,66.78
2023-04-15T08:00:09.753Z,65.26
2023-04-15T08:02:43.472Z,63.61
2023-04-15T08:05:10.780Z,64.32
2023-04-15T08:07:38.511Z,64.95
2023-04-15T08:10:06.430Z,64.73
2023-04-15T08:12:33.150Z,64.21
2023-04-15T08:15:00.828Z,65.02
2023-04-15T08:17:28.307Z,63.98
2023-04-15T08:19:55.147Z,63.36
2023-04-15T08:22:22.413Z,62.90
2023-04-15T08:24:49.171Z,60.80
2023-04-15T08:27:15.974Z,60.36
2023-04-15T08:29:42.668Z,59.37
2023-04-15T08:32:09.656Z,60.23
2023-04-15T08:34:36.421Z,60.06
2023-04-15T08:37:03.197Z,60.15
2023-04-15T08:39:29.876Z,58.50
2023-04-15T08:41:59.089Z,57.54
2023-04-15T08:44:28.867Z,56.31
2023-04-15T08:46:57.396Z,55.59
2023-04-15T08:49:27.173Z,53.56
2023-04-15T08:51:55.197Z,53.46
2023-04-15T08:54:21.794Z,52.21
2023-04-15T08:56:48.999Z,51.75
2023-04-15T08:59:16.625Z,53.87
2023-04-15T09:01:43.789Z,52.29
2023-04-15T09:04:12.587Z,51.09
2023-04-15T09:06:41.077Z,50.70
2023-04-15T09:09:08.084Z,50.45
2023-04-15T09:11:34.916Z,52.23
2023-04-15T09:14:01.815Z,51.22
2023-04-15T09:16:28.521Z,51.69
2023-04-15T09:18:55.209Z,51.76
2023-04-15T09:21:23.580Z,50.10
2023-04-15T09:23:57.226Z,48.98
2023-04-15T09:26:38.562Z,47.81
2023-04-15T09:29:07.949Z,48.35
2023-04-15T09:31:36.807Z,48.71
2023-04-15T09:34:03.709Z,47.04
2023-04-15T09:36:56.405Z,47.43
2023-04-15T09:39:23.116Z,46.10
2023-04-15T09:42:08.354Z,46.13
2023-04-15T09:44:35.293Z,46.57
2023-04-15T09:47:02.365Z,45.96
2023-04-15T09:49:29.319Z,44.13
2023-04-15T09:52:05.786Z,44.89
2023-04-15T09:54:38.014Z,42.85
2023-04-15T09:57:10.373Z,43.76
2023-04-15T09:59:37.395Z,43.85
2023-04-15T10:02:06.577Z,43.66
2023-04-15T10:04:36.751Z,43.90
2023-04-15T10:07:05.124Z,43.43
2023-04-15T10:09:33.687Z,41.44
2023-04-15T10:12:01.215Z,40.87
2023-04-15T10:14:30.795Z,41.25
2023-04-15T10:17:00.113Z,42.58
2023-04-15T10:19:28.109Z,41.28
2023-04-15T10:21:56.116Z,40.07
2023-04-15T10:24:24.197Z,38.99
2023-04-15T10:26:52.812Z,38.83
2023-04-15T10:29:20.655Z,39.87
2023-04-15T10:31:48.459Z,39.77
2023-04-15T10:34:16.331Z,40.15
2023-04-15T10:36:43.202Z,40.50
2023-04-15T10:39:45.277Z,39.75
2023-04-15T10:42:15.396Z,37.25
2023-04-15T10:44:45.648Z,37.85
2023-04-15T10:47:15.478Z,37.51
2023-04-15T10:49:57.119Z,38.04
2023-04-15T10:52:26.158Z,37.33
2023-04-15T10:55:14.738Z,37.89
2023-04-15T10:57:43.178Z,38.30
2023-04-15T11:00:14.740Z,38.10
2023-04-15T11:02:59.047Z,37.25
2023-04-15T11:05:53.670Z,37.37
2023-04-15T11:08:41.007Z,36.32
2023-04-15T11:11:07.761Z,37.04
2023-04-15T11:13:34.448Z,36.13
2023-04-15T11:16:02.564Z,35.74
2023-04-15T11:18:30.961Z,35.56
2023-04-15T11:21:00.345Z,36.70
2023-04-15T11:23:32.699Z,36.83
2023-04-15T11:26:00.955Z,37.92
2023-04-15T11:28:31.484Z,36.55
2023-04-15T11:30:59.235Z,35.77
2023-04-15T11:33:26.083Z,33.08
2023-04-15T11:35:54.949Z,34.32
2023-04-15T11:38:22.397Z,34.19
2023-04-15T11:40:51.033Z,34.55
2023-04-15T11:43:23.079Z,34.35
2023-04-15T11:45:53.077Z,34.54
2023-04-15T11:48:21.879Z,34.56
2023-04-15T11:50:57.285Z,34.24
2023-04-15T11:53:25.441Z,35.47
2023-04-15T11:55:54.044Z,34.92
2023-04-15T11:58:23.371Z,35.05
2023-04-15T12:00:58.858Z,34.52
2023-04-15T12:03:31.095Z,34.11
2023-04-15T12:06:24.477Z,35.04
2023-04-15T12:08:57.236Z,34.78
2023-04-15T12:11:26.721Z,34.59
2023-04-15T12:13:56.714Z,35.31
2023-04-15T12:16:24.758Z,34.79
2023-04-15T12:18:53.437Z,34.20
2023-04-15T12:21:21.065Z,34.02
2023-04-15T12:23:56.022Z,33.58
2023-04-15T12:26:50.503Z,34.38
2023-04-15T12:29:18.222Z,34.28
2023-04-15T12:31:59.471Z,33.76
2023-04-15T12:34:33.964Z,34.38
2023-04-15T12:37:02.521Z,34.68
2023-04-15T12:39:32.710Z,35.29
2023-04-15T12:42:00.462Z,34.75
2023-04-15T12:44:28.518Z,34.95
2023-04-15T12:46:55.415Z,34.51
2023-04-15T12:49:23.081Z,34.99
2023-04-15T12:51:54.227Z,34.21
2023-04-15T12:54:21.655Z,34.70
2023-04-15T12:56:50.016Z,34.63
2023-04-15T12:59:21.125Z,34.14
2023-04-15T13:01:49.039Z,34.37
2023-04-15T13:04:16.468Z,34.38
2023-04-15T13:06:44.129Z,34.42
2023-04-15T13:09:10.833Z,34.53
2023-04-15T13:11:37.653Z,34.59
2023-04-15T13:14:07.006Z,34.18
2023-04-15T13:16:34.656Z,33.26
2023-04-15T13:19:02.654Z,34.21
2023-04-15T13:21:29.552Z,34.59
2023-04-15T13:23:56.208Z,35.44
2023-04-15T13:26:22.864Z,35.36
2023-04-15T13:28:49.613Z,35.38
2023-04-15T13:31:16.423Z,36.21
2023-04-15T13:33:43.124Z,36.80
2023-04-15T13:36:09.880Z,35.68
2023-04-15T13:38:36.613Z,34.82
2023-04-15T13:41:03.849Z,34.32
2023-04-15T13:43:30.622Z,33.74
2023-04-15T13:45:57.397Z,34.51
2023-04-15T13:48:24.120Z,34.77
2023-04-15T13:50:50.989Z,35.25
2023-04-15T13:53:17.676Z,35.04
2023-04-15T13:55:44.461Z,34.91
2023-04-15T13:58:11.601Z,34.56
2023-04-15T14:00:38.456Z,33.63
2023-04-15T14:03:05.381Z,34.25
2023-04-15T14:05:32.938Z,34.62
2023-04-15T14:08:00.579Z,35.58
2023-04-15T14:10:27.281Z,35.24
2023-04-15T14:12:54.157Z,35.26
2023-04-15T14:15:21.805Z,36.02
2023-04-15T14:17:48.646Z,36.77
2023-04-15T14:20:17.187Z,35.76
2023-04-15T14:22:44.239Z,34.00
2023-04-15T14:25:15.127Z,33.08
2023-04-15T14:27:50.079Z,32.71
2023-04-15T14:30:17.593Z,32.82
2023-04-15T14:32:44.375Z,32.54
2023-04-15T14:35:11.326Z,32.01
2023-04-15T14:37:38.140Z,31.92
2023-04-15T14:40:05.280Z,31.42
2023-04-15T14:42:31.952Z,31.92
2023-04-15T14:44:58.769Z,31.35
2023-04-15T14:47:25.825Z,32.15
2023-04-15T14:49:52.600Z,32.25
2023-04-15T14:52:19.305Z,32.88
2023-04-15T14:54:45.961Z,32.25
2023-04-15T14:57:12.609Z,31.81
2023-04-15T14:59:39.222Z,31.32
2023-04-15T15:02:06.122Z,31.75
2023-04-15T15:04:33.550Z,31.81
2023-04-15T15:07:00.758Z,30.94
2023-04-15T15:09:27.626Z,30.71
2023-04-15T15:11:54.330Z,30.99
2023-04-15T15:14:21.780Z,30.60
2023-04-15T15:16:48.730Z,30.86
2023-04-15T15:19:15.391Z,31.50
2023-04-15T15:21:42.101Z,30.55
2023-04-15T15:24:08.796Z,30.30
2023-04-15T15:26:35.494Z,30.19
2023-04-15T15:29:02.486Z,29.57
2023-04-15T15:31:29.306Z,29.51
2023-04-15T15:33:56.098Z,29.55
2023-04-15T15:36:22.931Z,30.79
2023-04-15T15:38:49.618Z,30.54
2023-04-15T15:41:16.350Z,30.73
2023-04-15T15:43:43.000Z,30.96
2023-04-15T15:46:09.816Z,31.00
2023-04-15T15:48:36.834Z,31.35
2023-04-15T15:51:04.267Z,32.15
2023-04-15T15:53:31.186Z,32.60
2023-04-15T15:55:58.052Z,32.95
2023-04-15T15:58:24.782Z,31.45
2023-04-15T16:00:51.454Z,31.82
2023-04-15T16:03:18.573Z,31.08
2023-04-15T16:05:46.043Z,30.84
2023-04-15T16:08:12.702Z,30.61
2023-04-15T16:10:39.468Z,30.89
2023-04-15T16:13:06.205Z,30.31
2023-04-15T16:15:33.072Z,30.22
2023-04-15T16:18:00.115Z,32.19
2023-04-15T16:20:28.420Z,34.86
2023-04-15T16:22:58.619Z,34.95
2023-04-15T16:25:25.740Z,34.84
2023-04-15T16:28:01.299Z,33.64
2023-04-15T16:30:34.979Z,33.90
2023-04-15T16:33:01.885Z,33.47
2023-04-15T16:35:28.730Z,33.21
2023-04-15T16:37:55.531Z,32.78
2023-04-15T16:40:22.223Z,32.73
2023-04-15T16:42:50.276Z,34.25
2023-04-15T16:45:17.184Z,33.96
2023-04-15T16:47:44.002Z,35.68
2023-04-15T16:50:11.170Z,34.81
2023-04-15T16:52:37.891Z,33.88
2023-04-15T16:55:05.203Z,34.35
2023-04-15T16:57:50.798Z,33.78
2023-04-15T17:00:18.599Z,34.66
2023-04-15T17:02:45.528Z,37.53
2023-04-15T17:05:12.342Z,38.84
2023-04-15T17:07:39.015Z,37.06
2023-04-15T17:10:06.170Z,35.91
2023-04-15T17:12:32.887Z,35.52
2023-04-15T17:14:59.570Z,35.68
2023-04-15T17:17:26.291Z,36.04
2023-04-15T17:19:52.992Z,35.06
2023-04-15T17:22:19.713Z,35.39
2023-04-15T17:24:46.351Z,34.83
2023-04-15T17:27:13.066Z,35.40
2023-04-15T17:29:39.693Z,36.03
2023-04-15T17:32:06.437Z,36.58
2023-04-15T17:34:49.475Z,36.32
2023-04-15T17:37:18.458Z,35.84
2023-04-15T17:39:45.410Z,37.01
2023-04-15T17:42:12.503Z,38.44
2023-04-15T17:44:39.977Z,40.19
2023-04-15T17:47:07.279Z,41.63
2023-04-15T17:49:34.345Z,42.28
2023-04-15T17:52:01.331Z,43.02
2023-04-15T17:54:28.259Z,43.87
2023-04-15T17:56:56.637Z,44.16
2023-04-15T17:59:23.642Z,45.64
2023-04-15T18:01:50.644Z,46.26
2023-04-15T18:04:17.584Z,46.69
2023-04-15T18:06:44.424Z,48.40
2023-04-15T18:09:11.450Z,49.32
2023-04-15T18:11:40.045Z,50.23
2023-04-15T18:14:07.217Z,51.02
2023-04-15T18:16:34.373Z,51.19
2023-04-15T18:19:01.861Z,51.90
2023-04-15T18:21:28.537Z,52.03
2023-04-15T18:23:55.346Z,52.45
2023-04-15T18:26:22.092Z,53.27
2023-04-15T18:28:48.851Z,53.78
2023-04-15T18:31:15.695Z,54.24
2023-04-15T18:33:42.458Z,54.54
2023-04-15T18:36:10.396Z,54.14
2023-04-15T18:38:37.053Z,55.04
2023-04-15T18:41:05.491Z,55.75
2023-04-15T18:43:32.522Z,57.42
2023-04-15T18:46:00.056Z,60.11
2023-04-15T18:48:27.095Z,62.22
2023-04-15T18:50:54.037Z,63.46
2023-04-15T18:53:21.623Z,64.09
2023-04-15T18:55:48.446Z,65.84
2023-04-15T18:58:15.616Z,66.76
2023-04-15T19:00:43.815Z,65.41
2023-04-15T19:03:11.600Z,65.58
2023-04-15T19:05:38.435Z,66.56
2023-04-15T19:08:05.434Z,67.16
2023-04-15T19:10:32.144Z,66.84
2023-04-15T19:12:58.807Z,67.61
2023-04-15T19:15:25.519Z,67.82
2023-04-15T19:17:52.221Z,68.72
2023-04-15T19:20:18.933Z,68.97
2023-04-15T19:22:46.172Z,69.41
2023-04-15T19:25:13.204Z,70.58
2023-04-15T19:27:39.912Z,70.99
2023-04-15T19:30:07.913Z,71.78
2023-04-15T19:32:35.555Z,72.43
2023-04-15T19:35:02.264Z,72.77
2023-04-15T19:37:29.008Z,72.78
2023-04-15T19:39:56.161Z,73.47
2023-04-15T19:42:22.864Z,73.32
2023-04-15T19:44:49.572Z,72.37
2023-04-15T19:47:16.572Z,72.06
2023-04-15T19:49:43.494Z,72.93
2023-04-15T19:52:10.228Z,72.73
2023-04-15T19:54:37.150Z,73.21
2023-04-15T19:57:04.218Z,73.55
2023-04-15T19:59:31.057Z,73.07
2023-04-15T20:01:57.786Z,73.87
2023-04-15T20:04:24.853Z,74.41
2023-04-15T20:06:51.837Z,74.63
2023-04-15T20:09:18.582Z,74.08
2023-04-15T20:12:46.058Z,74.56
2023-04-15T20:14:32.049Z,74.15
2023-04-15T20:16:58.703Z,75.85
2023-04-15T20:19:25.576Z,75.29
2023-04-15T20:21:53.987Z,75.44
2023-04-15T20:24:21.522Z,75.52
2023-04-15T20:26:48.199Z,75.51
2023-04-15T20:29:14.952Z,76.16
2023-04-15T20:31:41.974Z,76.52
2023-04-15T20:34:11.825Z,76.31
2023-04-15T20:36:38.858Z,76.28
2023-04-15T20:39:05.751Z,76.38
2023-04-15T20:41:32.607Z,77.38
2023-04-15T20:43:59.270Z,77.49
2023-04-15T20:46:27.293Z,77.83
2023-04-15T20:48:54.681Z,78.29
2023-04-15T20:51:21.363Z,78.16
2023-04-15T20:53:48.215Z,78.14
2023-04-15T20:56:14.886Z,79.00
2023-04-15T20:58:41.553Z,77.85
2023-04-15T21:01:08.296Z,78.80
2023-04-15T21:03:35.102Z,78.21
2023-04-15T21:06:01.911Z,78.30
2023-04-15T21:08:31.674Z,78.85
2023-04-15T21:10:58.444Z,79.99
2023-04-15T21:13:25.269Z,80.34
2023-04-15T21:15:54.143Z,79.75
2023-04-15T21:18:22.299Z,79.92
2023-04-15T21:20:58.929Z,80.60
2023-04-15T21:23:26.263Z,80.75
2023-04-15T21:25:52.989Z,81.28
2023-04-15T21:28:19.786Z,81.68
2023-04-15T21:30:47.176Z,81.32
2023-04-15T21:33:13.842Z,81.29
2023-04-15T21:35:40.535Z,81.75
2023-04-15T21:38:07.691Z,82.35
2023-04-15T21:40:34.587Z,82.56
2023-04-15T21:43:01.212Z,82.59
2023-04-15T21:45:27.935Z,83.01
2023-04-15T21:48:04.939Z,83.08
2023-04-15T21:50:35.745Z,81.17
2023-04-15T21:53:03.671Z,82.39
2023-04-15T21:55:30.248Z,82.06
2023-04-15T21:57:56.996Z,82.22
2023-04-15T22:00:24.261Z,82.46
2023-04-15T22:02:51.578Z,83.65
2023-04-15T22:05:18.475Z,83.21
2023-04-15T22:07:45.555Z,83.64
2023-04-15T22:10:12.240Z,84.70
2023-04-15T22:12:41.855Z,84.25
2023-04-15T22:15:08.980Z,84.18
2023-04-15T22:17:35.704Z,84.47
2023-04-15T22:20:03.711Z,85.20
2023-04-15T22:22:43.375Z,85.23
2023-04-15T22:25:12.379Z,85.43
2023-04-15T22:27:39.074Z,85.49
2023-04-15T22:30:06.453Z,86.47
2023-04-15T22:32:33.190Z,85.23
2023-04-15T22:35:00.157Z,85.97
2023-04-15T22:37:30.460Z,85.74
2023-04-15T22:39:57.546Z,86.72
2023-04-15T22:42:24.352Z,86.32
2023-04-15T22:44:51.394Z,85.70
2023-04-15T22:47:19.037Z,86.05
2023-04-15T22:49:46.049Z,87.21
2023-04-15T22:52:23.468Z,87.31
2023-04-15T22:54:56.600Z,87.19
2023-04-15T22:57:23.274Z,87.54
2023-04-15T22:59:49.977Z,87.76
2023-04-15T23:02:16.905Z,87.12
2023-04-15T23:04:43.786Z,87.58
2023-04-15T23:07:11.163Z,87.59
2023-04-15T23:09:38.787Z,87.23
2023-04-15T23:12:06.134Z,87.85
2023-04-15T23:14:32.774Z,86.76
2023-04-15T23:16:59.504Z,86.80
2023-04-15T23:19:26.161Z,86.98
2023-04-15T23:21:53.527Z,87.02
2023-04-15T23:24:20.217Z,87.23
2023-04-15T23:26:47.002Z,86.97
2023-04-15T23:29:14.150Z,87.06
2023-04-15T23:31:41.768Z,87.80
2023-04-15T23:34:08.530Z,87.73
2023-04-15T23:36:35.243Z,87.95
2023-04-15T23:39:01.969Z,88.48
2023-04-15T23:41:28.751Z,88.52
2023-04-15T23:43:55.445Z,87.49
2023-04-15T23:46:22.123Z,88.26
2023-04-15T23:48:49.138Z,88.55
2023-04-15T23:51:16.550Z,88.32
2023-04-15T23:53:43.240Z,88.88
2023-04-15T23:56:10.063Z,89.65
2023-04-15T23:58:36.750Z,89.05
